Latest Weather Observations for Launceston Airport

IDT60801

Issued at 2:32 pm EST Friday 28 July 2017 (issued every 30 minutes, with the page automatically refreshed every 10 minutes)

About weather observations | Map of weather stations | Latest weather observations for TAS | Other Formats
Station Details ID: 091311 Name: LAUNCESTON AIRPORT Lat: -41.55 Lon: 147.21 Height: 166.9 m
Data from the previous 72 hours. | See also: Recent months at Launceston Airport
Date/Time
EST
Temp
°C
App
Temp
°C
Dew
Point
°C
Rel
Hum
%
Delta-T
°C
Wind Press
QNH
hPa
Press
MSL
hPa
Rain since
9am
mm
Dir  Spd
km/h
Gust
km/h
Spd
kts
Gust
kts
28/02:30pm 13.6 9.1 4.2 53 4.3 NW 17 24 9 13 1011.5 1011.9 0.0
28/02:00pm 12.1 7.3 4.8 61 3.4 N 19 24 10 13 1011.2 1011.6 0.0
28/01:30pm 11.6 7.8 5.7 67 2.8 N 15 20 8 11 1011.3 1011.7 0.0
28/01:00pm 11.8 8.0 5.9 67 2.8 N 15 20 8 11 1011.2 1011.6 0.0
28/12:30pm 12.0 8.1 5.4 64 3.1 NNW 15 19 8 10 1011.3 1011.7 0.0
28/12:00pm 11.8 8.1 6.5 70 2.5 NNW 15 17 8 9 1011.6 1012.0 0.0
28/11:30am 11.0 7.4 6.7 75 2.1 NNW 15 19 8 10 1011.7 1012.1 0.0
28/11:00am 10.5 7.0 7.2 80 1.6 N 15 20 8 11 1011.5 1011.9 0.0
28/10:30am 9.8 6.3 7.2 84 1.2 N 15 19 8 10 1011.5 1011.9 0.0
28/10:00am 8.5 6.1 6.8 89 0.8 NNW 9 17 5 9 1011.3 1011.7 0.0
28/09:30am 7.3 2.7 5.8 90 0.7 N 19 22 10 12 1010.8 1011.2 0.0
28/09:00am 7.5 4.4 7.1 97 0.2 N 13 17 7 9 1010.5 1010.9 6.6
28/08:40am 7.0 3.8 6.7 98 0.1 N 13 17 7 9 1010.5 1010.9 6.6
28/08:30am 6.6 3.3 6.3 98 0.1 NNW 13 15 7 8 1010.4 1010.8 6.6
28/08:23am 6.1 2.3 5.8 98 0.1 NNW 15 17 8 9 1010.2 1010.6 6.6
28/08:05am 4.9 0.1 4.5 97 0.2 NNW 19 19 10 10 1010.3 1010.7 6.6
28/08:00am 4.8 0.0 4.4 97 0.2 N 19 20 10 11 1010.2 1010.6 6.6
28/07:30am 4.0 -0.2 3.6 97 0.2 N 15 17 8 9 1009.9 1010.3 6.6
28/07:10am 4.9 0.8 4.5 97 0.2 NNW 15 17 8 9 1009.5 1009.9 6.6
28/07:00am 5.2 0.8 4.6 96 0.3 NNW 17 20 9 11 1009.2 1009.6 6.6
28/06:30am 6.8 2.7 6.4 97 0.2 NNW 17 20 9 11 1008.7 1009.1 6.6
28/06:01am 7.3 2.9 6.7 96 0.3 NNW 19 30 10 16 1008.4 1008.8 6.6
28/06:00am 7.4 3.1 6.8 96 0.3 NNW 19 30 10 16 1008.4 1008.8 6.6
28/05:30am 6.6 1.9 6.0 96 0.3 NNW 20 24 11 13 1008.2 1008.6 6.6
28/05:00am 6.8 1.7 6.2 96 0.3 NNW 22 28 12 15 1007.8 1008.2 6.6
28/04:30am 7.1 2.1 6.4 95 0.3 NNW 22 28 12 15 1007.7 1008.1 6.6
28/04:00am 7.1 2.5 6.4 95 0.3 NNW 20 28 11 15 1007.8 1008.2 6.6
28/03:30am 7.0 1.5 5.9 93 0.5 N 24 30 13 16 1007.3 1007.7 6.6
28/03:04am 6.9 1.8 6.0 94 0.4 NNW 22 30 12 16 1007.4 1007.8 6.6
28/03:00am 6.8 1.3 5.9 94 0.4 NNW 24 30 13 16 1007.4 1007.8 6.6
28/02:30am 6.8 1.3 5.9 94 0.4 NNW 24 35 13 19 1007.4 1007.8 6.6
28/02:00am 7.1 -0.5 5.7 91 0.6 N 35 43 19 23 1007.4 1007.8 6.2
28/01:30am 7.9 1.8 6.5 91 0.6 N 28 33 15 18 1007.3 1007.7 6.0
28/01:19am 7.9 1.8 6.4 90 0.7 N 28 37 15 20 1007.4 1007.8 6.0
28/01:13am 8.1 1.6 6.7 91 0.7 N 30 37 16 20 1007.4 1007.8 6.0
28/01:00am 8.5 1.8 7.4 93 0.5 NNW 32 41 17 22 1007.4 1007.8 5.8
28/12:53am 8.5 2.9 7.3 92 0.6 NNW 26 41 14 22 1007.7 1008.1 5.0
28/12:33am 8.5 3.6 7.1 91 0.7 NNW 22 30 12 16 1007.6 1008.0 4.0
28/12:30am 8.4 3.5 7.0 91 0.7 NNW 22 30 12 16 1007.8 1008.2 3.8
28/12:23am 8.5 2.5 7.0 90 0.7 NNW 28 46 15 25 1007.8 1008.2 3.4
28/12:15am 8.6 1.2 6.9 89 0.8 N 35 48 19 26 1007.8 1008.2 3.0
28/12:03am 8.7 0.2 7.0 89 0.8 N 41 56 22 30 1008.0 1008.4 2.6
28/12:00am 8.7 0.6 7.0 89 0.8 N 39 56 21 30 1008.0 1008.4 2.6
 
Date/Time
EST
Temp
°C
App
Temp
°C
Dew
Point
°C
Rel
Hum
%
Delta-T
°C
Wind Press
QNH
hPa
Press
MSL
hPa
Rain since
9am
mm
Dir  Spd
km/h
Gust
km/h
Spd
kts
Gust
kts
27/11:30pm 8.5 1.7 7.0 90 0.7 NNW 32 43 17 23 1008.1 1008.5 1.6
27/11:11pm 8.8 0.3 6.8 87 0.9 NNW 41 57 22 31 1008.3 1008.7 1.2
27/11:00pm 9.0 -0.1 7.0 87 0.9 NNW 44 57 24 31 1008.2 1008.6 1.2
27/10:54pm 9.0 0.1 7.5 90 0.7 NNW 44 57 24 31 1008.3 1008.7 1.2
27/10:52pm 9.1 -0.2 7.4 89 0.8 NNW 46 57 25 31 1008.4 1008.8 1.2
27/10:38pm 9.2 0.8 7.3 88 0.9 N 41 59 22 32 1008.4 1008.8 0.6
27/10:35pm 9.3 0.9 7.3 87 1.0 N 41 56 22 30 1008.4 1008.8 0.6
27/10:30pm 9.3 0.5 7.1 86 1.0 N 43 63 23 34 1008.4 1008.8 0.2
27/10:09pm 9.7 1.4 6.2 79 1.6 N 39 57 21 31 1008.4 1008.8 0.0
27/10:00pm 10.2 1.5 6.0 75 2.0 N 41 57 22 31 1008.5 1008.9 0.0
27/09:55pm 10.2 1.8 5.8 74 2.0 N 39 57 21 31 1008.6 1009.0 0.0
27/09:30pm 10.1 2.6 6.4 78 1.7 N 35 50 19 27 1009.1 1009.5 0.0
27/09:00pm 9.4 2.3 6.5 82 1.4 NNW 33 43 18 23 1009.7 1010.1 0.0
27/08:30pm 9.6 3.0 6.0 78 1.7 N 30 43 16 23 1010.2 1010.6 0.0
27/08:00pm 9.4 2.4 5.8 78 1.7 N 32 44 17 24 1010.6 1011.0 0.0
27/07:30pm 9.0 2.3 5.4 78 1.6 N 30 37 16 20 1010.9 1011.3 0.0
27/07:00pm 8.8 2.4 5.4 79 1.5 N 28 41 15 22 1011.2 1011.6 0.0
27/06:30pm 8.8 3.6 5.4 79 1.5 NNW 22 33 12 18 1012.1 1012.5 0.0
27/06:00pm 8.8 3.9 5.0 77 1.7 N 20 26 11 14 1012.4 1012.8 0.0
27/05:30pm 8.5 3.6 4.9 78 1.6 N 20 26 11 14 1012.8 1013.2 0.0
27/05:00pm 8.6 3.9 5.2 79 1.5 NNW 19 24 10 13 1013.4 1013.8 0.0
27/04:30pm 8.5 3.3 5.3 80 1.4 N 22 30 12 16 1013.4 1013.8 0.0
27/04:00pm 8.8 2.8 5.4 79 1.5 NNW 26 32 14 17 1013.6 1014.0 0.0
27/03:30pm 8.8 3.2 5.4 79 1.5 NNW 24 32 13 17 1013.9 1014.3 0.0
27/03:00pm 8.6 2.9 5.0 78 1.6 NNW 24 30 13 16 1014.1 1014.5 0.0
27/02:30pm 8.3 2.1 4.3 76 1.8 NNW 26 33 14 18 1014.8 1015.2 0.0
27/02:00pm 8.4 3.4 4.6 77 1.7 NNW 20 26 11 14 1015.3 1015.7 0.0
27/01:30pm 8.3 2.3 3.6 72 2.0 NNW 24 32 13 17 1016.2 1016.6 0.0
27/01:00pm 7.9 3.1 2.6 69 2.2 NNW 17 22 9 12 1016.7 1017.1 0.0
27/12:30pm 7.5 3.4 2.0 68 2.3 NNW 13 19 7 10 1017.3 1017.8 0.0
27/12:00pm 6.2 2.9 2.7 78 1.5 NNW 9 13 5 7 1017.9 1018.4 0.0
27/11:30am 5.6 1.9 2.6 81 1.2 SW 11 13 6 7 1018.6 1019.0 0.0
27/11:00am 5.3 1.5 2.0 79 1.3 SSW 11 13 6 7 1019.0 1019.4 0.0
27/10:30am 6.4 4.4 2.5 76 1.6 NNE 2 9 1 5 1019.3 1019.7 0.0
27/10:00am 3.3 0.2 1.5 88 0.7 SSW 7 9 4 5 1019.7 1020.1 0.0
27/09:30am 1.9 -0.8 0.4 90 0.6 S 4 13 2 7 1019.9 1020.3 0.0
27/09:00am 0.4 -1.7 -0.7 92 0.4 CALM 0 0 0 0 1020.4 1020.8 0.0
27/08:30am 0.0 -3.3 -1.1 92 0.4 NNW 6 9 3 5 1020.5 1020.9 0.0
27/08:00am -0.8 -3.0 -1.5 95 0.2 CALM 0 0 0 0 1020.2 1020.6 0.0
27/07:30am -1.9 -5.4 -2.7 94 0.2 E 6 7 3 4 1019.9 1020.3 0.0
27/07:00am -1.8 -4.2 -2.8 93 0.3 CALM 0 4 0 2 1020.0 1020.4 0.0
27/06:30am -1.5 -5.2 -2.5 93 0.3 NW 7 9 4 5 1019.8 1020.2 0.0
27/06:00am -1.9 -5.6 -3.0 92 0.3 NNW 7 9 4 5 1019.6 1020.0 0.0
27/05:30am -2.0 -6.1 -3.1 92 0.3 NE 9 13 5 7 1019.7 1020.1 0.0
27/05:00am -0.8 -4.8 -1.9 92 0.3 NNW 9 9 5 5 1019.8 1020.2 0.0
27/04:30am -1.0 -5.4 -2.3 91 0.4 N 11 13 6 7 1019.8 1020.2 0.0
27/04:00am -1.7 -5.4 -2.7 93 0.3 NNW 7 9 4 5 1019.8 1020.2 0.0
27/03:30am -1.9 -5.7 -3.5 89 0.4 NNW 7 9 4 5 1019.9 1020.3 0.0
27/03:00am -0.7 -4.1 -2.3 89 0.5 NNE 6 7 3 4 1020.3 1020.7 0.0
27/02:30am -0.3 -3.8 -1.7 90 0.5 NNW 7 9 4 5 1020.5 1020.9 0.0
27/02:00am -0.7 -5.1 -2.1 90 0.4 NW 11 13 6 7 1020.5 1020.9 0.0
27/01:30am -1.5 -5.6 -3.2 88 0.5 NNE 9 13 5 7 1020.1 1020.5 0.0
27/01:00am 0.2 -3.3 -1.1 91 0.5 NNW 7 11 4 6 1020.3 1020.7 0.0
27/12:30am -0.2 -4.2 -1.9 88 0.6 NNW 9 11 5 6 1020.2 1020.6 0.0
27/12:00am -0.6 -4.1 -2.6 86 0.6 NW 6 9 3 5 1020.3 1020.7 0.0
 
Date/Time
EST
Temp
°C
App
Temp
°C
Dew
Point
°C
Rel
Hum
%
Delta-T
°C
Wind Press
QNH
hPa
Press
MSL
hPa
Rain since
9am
mm
Dir  Spd
km/h
Gust
km/h
Spd
kts
Gust
kts
26/11:30pm 0.2 -3.4 -1.9 86 0.7 N 7 9 4 5 1020.2 1020.6 0.0
26/11:00pm -0.3 -4.0 -2.7 84 0.8 N 7 11 4 6 1020.0 1020.4 0.0
26/10:30pm 1.6 -1.8 -0.6 85 0.8 N 7 9 4 5 1019.7 1020.1 0.0
26/10:00pm 1.5 -1.4 -1.4 81 1.0 WSW 4 6 2 3 1019.6 1020.0 0.0
26/09:30pm 2.4 0.4 0.0 84 0.9 CALM 0 0 0 0 1019.3 1019.7 0.0
26/09:00pm 2.2 -0.7 -1.1 79 1.2 WSW 4 6 2 3 1018.9 1019.3 0.0
26/08:30pm 2.9 -0.4 -1.1 75 1.5 SSE 6 9 3 5 1018.7 1019.1 0.0
26/08:00pm 3.2 0.3 -1.3 72 1.6 NNE 4 7 2 4 1018.5 1018.9 0.0
26/07:30pm 4.3 0.1 -0.9 69 1.9 SW 11 15 6 8 1017.8 1018.3 0.0
26/07:00pm 4.7 0.9 -0.9 67 2.1 SSW 9 11 5 6 1017.3 1017.8 0.0
26/06:30pm 5.3 1.9 -0.7 65 2.3 S 7 9 4 5 1017.1 1017.6 0.0
26/06:00pm 5.4 1.2 -1.1 63 2.4 SSW 11 15 6 8 1016.4 1016.8 0.0
26/05:30pm 6.3 2.2 -0.4 62 2.6 SSW 11 13 6 7 1015.8 1016.2 0.0
26/05:00pm 7.8 2.8 -0.9 54 3.4 SW 15 24 8 13 1015.7 1016.1 0.0
26/04:30pm 8.5 4.2 0.7 58 3.2 SSW 13 20 7 11 1015.2 1015.6 0.0
26/04:00pm 9.6 4.9 0.8 54 3.6 SSW 15 20 8 11 1014.6 1015.0 0.0
26/03:30pm 10.0 5.6 0.3 51 4.0 SW 13 22 7 12 1013.9 1014.3 0.0
26/03:00pm 10.2 5.6 1.3 54 3.7 S 15 20 8 11 1013.7 1014.1 0.0
26/02:30pm 9.7 4.1 0.1 51 3.9 S 19 24 10 13 1013.1 1013.5 0.0
26/02:00pm 10.2 5.2 1.1 53 3.8 S 17 24 9 13 1012.9 1013.3 0.0
26/01:30pm 10.1 4.1 1.0 53 3.8 SSW 22 32 12 17 1012.3 1012.7 0.0
26/01:00pm 9.4 4.1 2.9 64 2.8 SSE 20 24 11 13 1012.0 1012.4 0.0
26/12:30pm 9.3 5.2 4.3 71 2.2 SE 15 20 8 11 1011.5 1011.9 0.0
26/12:00pm 8.7 3.2 4.1 73 2.0 SE 22 30 12 16 1011.5 1011.9 0.0
26/11:30am 9.1 3.6 4.1 71 2.2 SE 22 30 12 16 1011.1 1011.5 0.0
26/11:00am 9.6 4.5 4.0 68 2.5 SE 20 32 11 17 1010.6 1011.0 0.0
26/10:30am 9.2 3.4 4.4 72 2.1 SE 24 32 13 17 1010.0 1010.4 0.0
26/10:00am 8.7 3.5 3.7 71 2.2 SSE 20 28 11 15 1009.1 1009.5 0.0
26/09:30am 8.2 3.1 4.2 76 1.8 SSE 20 26 11 14 1008.6 1009.0 0.0
26/09:00am 7.7 2.6 4.3 79 1.5 SSE 20 28 11 15 1008.1 1008.5 4.2
26/08:30am 6.8 1.9 3.9 82 1.3 S 19 26 10 14 1007.5 1007.9 4.2
26/08:00am 6.2 2.5 4.5 89 0.7 SSW 13 17 7 9 1006.4 1006.7 4.2
26/07:30am 6.0 3.2 5.1 94 0.4 SE 9 13 5 7 1005.5 1005.9 4.2
26/07:00am 6.0 2.9 5.4 96 0.3 NW 11 13 6 7 1004.4 1004.8 4.2
26/06:30am 6.3 2.5 5.9 97 0.2 NW 15 17 8 9 1003.5 1003.9 4.2
26/06:00am 5.1 1.1 4.7 97 0.2 NNW 15 17 8 9 1003.0 1003.4 4.2
26/05:42am 5.0 0.9 4.6 97 0.2 NNW 15 17 8 9 1002.7 1003.1 4.2
26/05:30am 4.2 0.0 3.6 96 0.3 NNW 15 17 8 9 1002.5 1002.9 4.2
26/05:10am 4.5 0.7 3.9 96 0.3 NNW 13 15 7 8 1002.3 1002.7 4.2
26/05:00am 5.1 1.4 4.5 96 0.3 NNW 13 17 7 9 1002.2 1002.6 4.2
26/04:30am 5.3 1.3 4.7 96 0.3 NNW 15 19 8 10 1002.0 1002.4 4.2
26/04:00am 5.5 1.1 4.9 96 0.3 NNW 17 20 9 11 1001.6 1001.9 4.2
26/03:30am 4.9 0.7 3.9 93 0.4 NNW 15 17 8 9 1001.5 1001.8 4.2
26/03:00am 6.1 2.8 4.7 91 0.6 NNW 11 13 6 7 1001.7 1002.0 4.2
26/02:30am 7.1 3.7 5.7 91 0.6 N 13 17 7 9 1001.9 1002.2 4.2
26/02:00am 7.5 2.7 5.8 89 0.8 N 20 28 11 15 1002.3 1002.7 4.2
26/01:30am 7.6 2.7 5.2 85 1.1 NNW 20 28 11 15 1002.4 1002.8 4.2
26/01:01am 8.2 1.4 5.1 81 1.4 NW 30 43 16 23 1002.5 1002.9 4.0
26/01:00am 8.2 1.4 5.1 81 1.4 NW 30 41 16 22 1002.6 1003.0 4.0
26/12:51am 8.6 2.8 6.1 84 1.2 NW 26 37 14 20 1003.1 1003.5 3.2
26/12:40am 8.7 4.4 7.0 89 0.8 WNW 19 28 10 15 1003.3 1003.7 2.0
26/12:30am 8.9 4.4 6.9 87 0.9 NNW 20 30 11 16 1003.1 1003.5 0.8
26/12:00am 8.7 4.4 6.8 88 0.9 NNW 19 24 10 13 1003.5 1003.9 0.8
 
Date/Time
EST
Temp
°C
App
Temp
°C
Dew
Point
°C
Rel
Hum
%
Delta-T
°C
Wind Press
QNH
hPa
Press
MSL
hPa
Rain since
9am
mm
Dir  Spd
km/h
Gust
km/h
Spd
kts
Gust
kts
25/11:30pm 7.2 2.4 5.8 91 0.6 NNW 20 22 11 12 1003.5 1003.9 0.8
25/11:00pm 7.3 3.1 5.9 91 0.6 NNW 17 20 9 11 1003.5 1003.9 0.8
25/10:30pm 8.1 2.7 6.2 88 0.9 NNW 24 32 13 17 1003.5 1003.9 0.8
25/10:00pm 8.2 2.3 5.8 85 1.1 NNW 26 33 14 18 1004.1 1004.5 0.8
25/09:30pm 8.5 3.9 6.6 88 0.9 NNW 20 28 11 15 1004.4 1004.8 0.8
25/09:00pm 8.6 4.7 6.9 89 0.8 NNW 17 22 9 12 1004.9 1005.3 0.8
25/08:30pm 9.0 4.8 7.3 89 0.8 NNW 19 26 10 14 1005.3 1005.7 0.8
25/08:00pm 8.9 5.1 7.5 91 0.7 NNW 17 20 9 11 1005.2 1005.6 0.8
25/07:30pm 9.4 4.6 7.5 88 0.9 NNW 22 33 12 18 1005.2 1005.6 0.8
25/07:00pm 9.5 5.1 7.4 87 1.0 N 20 28 11 15 1005.4 1005.8 0.8
25/06:30pm 9.7 4.6 7.5 86 1.1 N 24 32 13 17 1005.3 1005.7 0.8
25/06:27pm 9.9 4.8 7.8 87 1.0 N 24 32 13 17 1005.2 1005.6 0.8
25/06:00pm 10.0 5.1 8.4 90 0.8 N 24 30 13 16 1005.1 1005.5 0.8
25/05:42pm 10.0 4.3 8.4 90 0.8 N 28 37 15 20 1005.0 1005.4 0.8
25/05:33pm 9.9 3.8 8.2 89 0.8 N 30 41 16 22 1005.0 1005.4 0.8
25/05:30pm 10.1 4.0 8.4 89 0.8 N 30 41 16 22 1005.0 1005.4 0.8
25/05:02pm 10.6 4.7 9.2 91 0.7 N 30 39 16 21 1005.0 1005.4 0.8
25/05:00pm 10.5 4.6 9.1 91 0.7 N 30 39 16 21 1004.9 1005.3 0.8
25/04:31pm 10.6 4.7 9.0 90 0.8 N 30 35 16 19 1005.0 1005.4 0.8
25/04:30pm 10.6 4.7 9.0 90 0.8 N 30 35 16 19 1005.1 1005.5 0.8
25/04:17pm 10.9 5.0 9.2 89 0.9 N 30 43 16 23 1005.1 1005.5 0.8
25/04:00pm 10.9 4.6 9.0 88 1.0 NNW 32 43 17 23 1005.1 1005.5 0.8
25/03:30pm 11.0 5.6 9.4 90 0.8 NNW 28 39 15 21 1005.4 1005.8 0.8
25/03:24pm 11.2 5.8 9.6 90 0.8 NNW 28 39 15 21 1005.4 1005.8 0.8
25/03:03pm 10.9 4.1 9.3 90 0.8 NNW 35 44 19 24 1005.2 1005.6 0.4
25/03:00pm 11.0 4.5 8.9 87 1.1 NNW 33 48 18 26 1005.4 1005.8 0.2

Other Formats:

Comma delimited format used in spreadsheet applications
http://www.bom.gov.au/fwo/IDT60801/IDT60801.95966.axf

JavaScript Object Notation format (JSON) in row-major order
http://www.bom.gov.au/fwo/IDT60801/IDT60801.95966.json